createdAt,value
2018-05-14T00:00:01.572Z,4.17
2018-05-14T00:02:29.965Z,4.00
2018-05-14T00:04:58.339Z,3.57
2018-05-14T00:07:26.724Z,4.40
2018-05-14T00:09:54.345Z,4.10
2018-05-14T00:12:21.963Z,4.30
2018-05-14T00:14:49.588Z,4.60
2018-05-14T00:17:18.426Z,4.07
2018-05-14T00:19:46.044Z,4.60
2018-05-14T00:22:14.432Z,4.47
2018-05-14T00:24:42.054Z,4.30
2018-05-14T00:27:09.672Z,4.17
2018-05-14T00:29:37.279Z,4.33
2018-05-14T00:32:04.927Z,4.47
2018-05-14T00:34:32.558Z,4.47
2018-05-14T00:37:00.160Z,3.73
2018-05-14T00:39:28.192Z,4.20
2018-05-14T00:41:56.155Z,4.00
2018-05-14T00:44:23.759Z,4.40
2018-05-14T00:46:51.378Z,4.23
2018-05-14T00:49:19.007Z,4.03
2018-05-14T00:51:46.623Z,4.53
2018-05-14T00:54:14.243Z,4.30
2018-05-14T00:56:41.847Z,4.23
2018-05-14T00:59:09.473Z,4.40
2018-05-14T01:01:37.094Z,4.03
2018-05-14T01:04:05.511Z,4.70
2018-05-14T01:06:33.166Z,4.57
2018-05-14T01:09:00.779Z,3.87
2018-05-14T01:11:28.396Z,4.27
2018-05-14T01:13:56.004Z,3.90
2018-05-14T01:16:24.388Z,3.90
2018-05-14T01:18:52.780Z,4.30
2018-05-14T01:21:20.388Z,4.07
2018-05-14T01:23:48.048Z,4.10
2018-05-14T01:26:15.663Z,4.00
2018-05-14T01:28:43.279Z,4.40
2018-05-14T01:31:10.911Z,4.60
2018-05-14T01:33:38.515Z,4.00
2018-05-14T01:36:06.900Z,4.40
2018-05-14T01:38:35.280Z,4.10
2018-05-14T01:41:03.672Z,4.03
2018-05-14T01:43:31.675Z,4.13
2018-05-14T01:45:59.311Z,3.90
2018-05-14T01:48:26.932Z,3.63
2018-05-14T01:50:54.540Z,4.23
2018-05-14T01:53:22.156Z,3.80
2018-05-14T01:55:50.539Z,3.57
2018-05-14T01:58:18.931Z,3.73
2018-05-14T02:00:47.326Z,3.77
2018-05-14T02:03:14.937Z,4.07
2018-05-14T02:05:42.556Z,3.73
2018-05-14T02:08:10.175Z,4.10
2018-05-14T02:10:38.621Z,4.07
2018-05-14T02:13:06.272Z,4.27
2018-05-14T02:15:33.915Z,3.77
2018-05-14T02:18:01.538Z,3.90
2018-05-14T02:20:29.913Z,4.27
2018-05-14T02:22:58.300Z,4.30
2018-05-14T02:25:26.696Z,4.43
2018-05-14T02:27:54.515Z,3.93
2018-05-14T02:30:22.129Z,4.00
2018-05-14T02:32:49.748Z,4.30
2018-05-14T02:35:18.132Z,4.07
2018-05-14T02:37:46.519Z,3.57
2018-05-14T02:40:15.351Z,4.03
2018-05-14T02:42:42.968Z,4.67
2018-05-14T02:45:11.360Z,3.77
2018-05-14T02:47:39.001Z,3.73
2018-05-14T02:50:07.407Z,4.27
2018-05-14T02:52:35.024Z,3.57
2018-05-14T02:55:02.642Z,4.33
2018-05-14T02:57:30.248Z,3.53
2018-05-14T02:59:58.628Z,4.10
2018-05-14T03:02:27.044Z,4.60
2018-05-14T03:04:54.691Z,4.43
2018-05-14T03:07:22.327Z,3.83
2018-05-14T03:09:50.700Z,3.63
2018-05-14T03:12:19.088Z,4.03
2018-05-14T03:14:46.741Z,4.30
2018-05-14T03:17:15.111Z,4.30
2018-05-14T03:19:42.730Z,4.27
2018-05-14T03:22:10.360Z,4.20
2018-05-14T03:24:37.967Z,3.83
2018-05-14T03:27:05.588Z,4.17
2018-05-14T03:29:33.199Z,3.70
2018-05-14T03:32:00.811Z,3.93
2018-05-14T03:34:28.431Z,4.07
2018-05-14T03:36:56.051Z,4.07
2018-05-14T03:39:23.659Z,4.10
2018-05-14T03:41:52.040Z,3.60
2018-05-14T03:44:20.424Z,3.87
2018-05-14T03:46:48.799Z,4.03
2018-05-14T03:49:17.183Z,4.20
2018-05-14T03:51:45.560Z,3.60
2018-05-14T03:54:13.939Z,4.03
2018-05-14T03:56:42.313Z,3.50
2018-05-14T03:59:22.657Z,3.90
2018-05-14T04:02:16.656Z,3.80
2018-05-14T04:05:06.811Z,3.50
2018-05-14T04:07:34.437Z,4.47
2018-05-14T04:10:02.056Z,3.63
2018-05-14T04:12:29.699Z,3.33
2018-05-14T04:14:57.322Z,4.50
2018-05-14T04:17:25.787Z,3.47
2018-05-14T04:19:53.391Z,4.30
2018-05-14T04:22:21.058Z,3.33
2018-05-14T04:24:48.982Z,4.00
2018-05-14T04:27:16.588Z,3.77
2018-05-14T04:29:44.203Z,3.80
2018-05-14T04:32:11.872Z,3.70
2018-05-14T04:34:39.492Z,3.40
2018-05-14T04:37:07.105Z,3.43
2018-05-14T04:39:34.772Z,3.80
2018-05-14T04:42:02.393Z,3.60
2018-05-14T04:44:30.000Z,3.47
2018-05-14T04:46:57.620Z,4.00
2018-05-14T04:49:25.381Z,3.57
2018-05-14T04:51:52.925Z,3.13
2018-05-14T04:54:20.544Z,3.70
2018-05-14T04:56:48.166Z,3.43
2018-05-14T04:59:15.792Z,3.63
2018-05-14T05:01:43.493Z,3.50
2018-05-14T05:04:11.112Z,3.70
2018-05-14T05:06:38.748Z,4.17
2018-05-14T05:09:06.396Z,3.73
2018-05-14T05:11:34.107Z,5.17
2018-05-14T05:14:01.656Z,4.10
2018-05-14T05:16:29.280Z,3.87
2018-05-14T05:18:56.893Z,3.67
2018-05-14T05:21:24.531Z,4.10
2018-05-14T05:23:52.918Z,3.70
2018-05-14T05:26:20.529Z,4.37
2018-05-14T05:28:48.148Z,4.03
2018-05-14T05:31:15.762Z,4.00
2018-05-14T05:33:43.438Z,4.13
2018-05-14T05:36:11.813Z,3.87
2018-05-14T05:38:40.200Z,4.13
2018-05-14T05:41:08.589Z,3.77
2018-05-14T05:43:36.204Z,3.63
2018-05-14T05:46:03.840Z,4.00
2018-05-14T05:48:31.461Z,3.73
2018-05-14T05:50:59.851Z,3.40
2018-05-14T05:53:27.471Z,4.00
2018-05-14T05:55:55.095Z,4.53
2018-05-14T05:58:22.715Z,4.07
2018-05-14T06:00:51.101Z,4.17
2018-05-14T06:03:18.728Z,4.37
2018-05-14T06:05:46.339Z,3.90
2018-05-14T06:08:13.971Z,4.37
2018-05-14T06:10:42.353Z,4.30
2018-05-14T06:13:10.729Z,4.53
2018-05-14T06:15:39.119Z,4.13
2018-05-14T06:18:06.732Z,4.20
2018-05-14T06:20:34.356Z,3.50
2018-05-14T06:23:01.988Z,3.47
2018-05-14T06:25:30.384Z,3.43
2018-05-14T06:27:58.008Z,3.20
2018-05-14T06:30:25.633Z,3.33
2018-05-14T06:32:53.288Z,3.40
2018-05-14T06:35:20.904Z,3.70
2018-05-14T06:37:49.648Z,3.50
2018-05-14T06:40:17.278Z,3.60
2018-05-14T06:42:44.883Z,3.60
2018-05-14T06:45:12.500Z,3.57
2018-05-14T06:47:40.116Z,3.37
2018-05-14T06:50:08.504Z,3.90
2018-05-14T06:52:36.896Z,3.33
2018-05-14T06:55:04.529Z,3.57
2018-05-14T06:57:32.963Z,3.40
2018-05-14T07:00:00.572Z,3.65
2018-05-14T07:02:28.956Z,3.60
2018-05-14T07:04:57.339Z,3.37
2018-05-14T07:07:25.721Z,3.67
2018-05-14T07:09:54.103Z,3.95
2018-05-14T07:12:21.724Z,3.15
2018-05-14T07:14:49.331Z,3.50
2018-05-14T07:17:16.979Z,3.30
2018-05-14T07:19:45.367Z,4.12
2018-05-14T07:22:12.994Z,3.70
2018-05-14T07:24:40.684Z,3.97
2018-05-14T07:27:08.271Z,3.72
2018-05-14T07:29:35.891Z,3.42
2018-05-14T07:32:04.276Z,2.72
2018-05-14T07:34:31.915Z,3.10
2018-05-14T07:36:59.540Z,3.90
2018-05-14T07:39:27.175Z,3.30
2018-05-14T07:41:54.801Z,2.97
2018-05-14T07:44:23.176Z,3.20
2018-05-14T07:46:51.568Z,3.72
2018-05-14T07:49:20.063Z,3.30
2018-05-14T07:51:48.390Z,3.42
2018-05-14T07:54:16.022Z,2.90
2018-05-14T07:56:43.632Z,2.83
2018-05-14T07:59:12.370Z,3.47
2018-05-14T08:01:39.987Z,3.40
2018-05-14T08:04:08.378Z,3.08
2018-05-14T08:06:36.020Z,3.72
2018-05-14T08:09:04.428Z,4.00
2018-05-14T08:11:32.052Z,3.30
2018-05-14T08:14:00.480Z,3.00
2018-05-14T08:16:28.081Z,3.95
2018-05-14T08:18:55.706Z,3.30
2018-05-14T08:21:23.333Z,2.97
2018-05-14T08:23:51.207Z,3.20
2018-05-14T08:26:18.830Z,2.60
2018-05-14T08:28:47.430Z,3.80
2018-05-14T08:31:14.880Z,3.17
2018-05-14T08:33:43.255Z,3.10
2018-05-14T08:36:11.648Z,2.60
2018-05-14T08:38:40.367Z,3.17
2018-05-14T08:41:07.971Z,3.47
2018-05-14T08:43:36.360Z,3.40
2018-05-14T08:46:04.748Z,3.25
2018-05-14T08:48:32.360Z,2.87
2018-05-14T08:51:00.008Z,3.58
2018-05-14T08:53:27.627Z,3.45
2018-05-14T08:55:56.000Z,3.33
2018-05-14T08:58:24.732Z,3.33
2018-05-14T09:00:53.214Z,3.50
2018-05-14T09:03:21.545Z,3.20
2018-05-14T09:05:49.928Z,3.47
2018-05-14T09:08:17.555Z,3.08
2018-05-14T09:10:45.180Z,3.03
2018-05-14T09:13:12.792Z,3.15
2018-05-14T09:15:41.173Z,3.22
2018-05-14T09:18:09.552Z,3.12
2018-05-14T09:20:37.942Z,3.33
2018-05-14T09:23:05.564Z,3.20
2018-05-14T09:25:33.270Z,3.10
2018-05-14T09:28:00.838Z,3.40
2018-05-14T09:30:28.459Z,2.85
2018-05-14T09:32:56.072Z,3.17
2018-05-14T09:35:24.465Z,3.37
2018-05-14T09:37:52.144Z,3.22
2018-05-14T09:40:19.759Z,2.97
2018-05-14T09:42:47.379Z,3.87
2018-05-14T09:45:15.760Z,3.28
2018-05-14T09:47:44.152Z,3.50
2018-05-14T09:50:11.764Z,3.42
2018-05-14T09:52:39.389Z,3.97
2018-05-14T09:55:07.016Z,3.45
2018-05-14T09:57:35.395Z,3.53
2018-05-14T10:00:03.812Z,3.17
2018-05-14T10:02:31.421Z,3.40
2018-05-14T10:04:59.046Z,3.47
2018-05-14T10:07:26.666Z,3.53
2018-05-14T10:09:55.048Z,3.80
2018-05-14T10:12:23.436Z,3.47
2018-05-14T10:14:51.048Z,3.70
2018-05-14T10:17:19.093Z,3.90
2018-05-14T10:19:46.717Z,3.55
2018-05-14T10:22:14.330Z,4.15
2018-05-14T10:24:41.993Z,3.35
2018-05-14T10:27:09.636Z,3.33
2018-05-14T10:29:37.297Z,3.35
2018-05-14T10:32:04.973Z,4.00
2018-05-14T10:34:32.555Z,3.55
2018-05-14T10:37:00.944Z,3.65
2018-05-14T10:39:29.317Z,3.28
2018-05-14T10:41:57.715Z,3.05
2018-05-14T10:44:25.339Z,3.33
2018-05-14T10:46:53.773Z,3.50
2018-05-14T10:49:21.384Z,3.08
2018-05-14T10:51:49.004Z,2.90
2018-05-14T10:54:16.632Z,2.80
2018-05-14T10:56:44.284Z,3.70
2018-05-14T10:59:12.667Z,2.90
2018-05-14T11:01:40.276Z,4.72
2018-05-14T11:04:07.961Z,3.12
2018-05-14T11:06:35.560Z,3.33
2018-05-14T11:09:03.207Z,3.20
2018-05-14T11:11:31.598Z,3.37
2018-05-14T11:13:59.245Z,3.25
2018-05-14T11:16:27.636Z,3.60
2018-05-14T11:18:55.274Z,3.53
2018-05-14T11:21:23.664Z,2.58
2018-05-14T11:23:51.278Z,3.00
2018-05-14T11:26:18.899Z,3.15
2018-05-14T11:28:46.520Z,2.22
2018-05-14T11:31:14.915Z,2.30
2018-05-14T11:33:43.291Z,2.37
2018-05-14T11:36:11.675Z,2.08
2018-05-14T11:38:39.299Z,2.00
2018-05-14T11:41:06.985Z,2.22
2018-05-14T11:43:34.571Z,2.33
2018-05-14T11:46:02.207Z,2.67
2018-05-14T11:48:30.584Z,2.42
2018-05-14T11:50:59.009Z,2.30
2018-05-14T11:53:27.392Z,2.20
2018-05-14T11:55:55.001Z,2.40
2018-05-14T11:58:23.400Z,2.40
2018-05-14T12:00:51.011Z,2.03
2018-05-14T12:03:18.643Z,2.65
2018-05-14T12:05:46.613Z,2.55
2018-05-14T12:08:14.239Z,2.58
2018-05-14T12:10:41.868Z,2.45
2018-05-14T12:13:09.494Z,2.25
2018-05-14T12:15:37.112Z,2.65
2018-05-14T12:18:05.088Z,2.40
2018-05-14T12:20:32.697Z,2.40
2018-05-14T12:23:00.312Z,2.47
2018-05-14T12:25:27.935Z,2.58
2018-05-14T12:27:55.605Z,2.28
2018-05-14T12:30:24.340Z,2.33
2018-05-14T12:32:51.970Z,2.40
2018-05-14T12:35:19.874Z,2.37
2018-05-14T12:37:47.512Z,2.05
2018-05-14T12:40:15.132Z,2.83
2018-05-14T12:42:43.060Z,3.00
2018-05-14T12:45:10.676Z,2.33
2018-05-14T12:47:39.067Z,5.95
2018-05-14T12:50:06.706Z,2.70
2018-05-14T12:52:35.108Z,2.30
2018-05-14T12:55:02.736Z,3.47
2018-05-14T12:57:30.368Z,4.22
2018-05-14T12:59:57.990Z,2.62
2018-05-14T13:02:25.624Z,2.40
2018-05-14T13:04:53.290Z,3.08
2018-05-14T13:07:21.695Z,2.67
2018-05-14T13:09:49.320Z,2.60
2018-05-14T13:12:17.704Z,2.72
2018-05-14T13:14:46.088Z,2.75
2018-05-14T13:17:14.820Z,2.78
2018-05-14T13:19:42.448Z,2.72
2018-05-14T13:22:10.060Z,2.40
2018-05-14T13:24:37.695Z,2.60
2018-05-14T13:27:05.330Z,2.30
2018-05-14T13:29:32.952Z,2.20
2018-05-14T13:32:00.598Z,2.28
2018-05-14T13:34:28.236Z,2.45
2018-05-14T13:36:55.860Z,2.75
2018-05-14T13:39:23.489Z,2.40
2018-05-14T13:41:51.169Z,2.50
2018-05-14T13:44:19.649Z,2.65
2018-05-14T13:46:47.199Z,2.12
2018-05-14T13:49:15.592Z,2.40
2018-05-14T13:51:43.967Z,2.62
2018-05-14T13:54:12.358Z,2.65
2018-05-14T13:56:39.992Z,2.15
2018-05-14T13:59:07.606Z,2.37
2018-05-14T14:01:35.248Z,2.42
2018-05-14T14:04:02.876Z,2.80
2018-05-14T14:06:31.256Z,2.40
2018-05-14T14:08:59.664Z,2.78
2018-05-14T14:11:27.385Z,2.72
2018-05-14T14:13:54.965Z,2.70
2018-05-14T14:16:23.355Z,3.58
2018-05-14T14:18:50.964Z,3.00
2018-05-14T14:21:18.584Z,2.80
2018-05-14T14:23:46.403Z,3.03
2018-05-14T14:26:13.852Z,2.75
2018-05-14T14:28:41.472Z,2.75
2018-05-14T14:31:09.123Z,3.00
2018-05-14T14:33:36.732Z,2.95
2018-05-14T14:36:04.441Z,2.47
2018-05-14T14:38:32.795Z,2.70
2018-05-14T14:41:01.184Z,3.08
2018-05-14T14:43:28.862Z,3.05
2018-05-14T14:45:56.471Z,2.62
2018-05-14T14:48:24.104Z,3.20
2018-05-14T14:50:51.733Z,4.25
2018-05-14T14:53:19.360Z,2.97
2018-05-14T14:55:46.977Z,3.10
2018-05-14T14:58:14.600Z,2.47
2018-05-14T15:00:42.259Z,3.20
2018-05-14T15:03:10.646Z,2.67
2018-05-14T15:05:38.264Z,3.22
2018-05-14T15:08:05.884Z,3.53
2018-05-14T15:10:33.524Z,3.00
2018-05-14T15:13:01.922Z,3.05
2018-05-14T15:15:29.544Z,3.20
2018-05-14T15:17:57.940Z,3.10
2018-05-14T15:20:25.568Z,3.85
2018-05-14T15:22:53.201Z,3.12
2018-05-14T15:25:20.816Z,2.67
2018-05-14T15:27:49.208Z,3.45
2018-05-14T15:30:16.820Z,2.70
2018-05-14T15:32:44.487Z,2.53
2018-05-14T15:35:12.129Z,3.00
2018-05-14T15:37:39.760Z,2.90
2018-05-14T15:40:07.745Z,2.70
2018-05-14T15:42:35.360Z,4.15
2018-05-14T15:45:03.790Z,2.97
2018-05-14T15:47:31.443Z,2.95
2018-05-14T15:49:59.850Z,2.85
2018-05-14T15:52:28.254Z,2.83
2018-05-14T15:54:56.644Z,3.28
2018-05-14T15:57:24.255Z,2.72
2018-05-14T15:59:51.885Z,2.95
2018-05-14T16:02:19.512Z,2.75
2018-05-14T16:04:47.901Z,2.55
2018-05-14T16:07:15.528Z,3.00
2018-05-14T16:09:43.149Z,3.20
2018-05-14T16:12:10.789Z,3.70
2018-05-14T16:14:38.481Z,2.80
2018-05-14T16:17:06.849Z,2.60
2018-05-14T16:19:34.484Z,3.35
2018-05-14T16:22:02.142Z,2.90
2018-05-14T16:24:29.764Z,2.90
2018-05-14T16:26:57.422Z,2.90
2018-05-14T16:29:25.053Z,3.35
2018-05-14T16:31:52.668Z,3.80
2018-05-14T16:34:21.057Z,4.03
2018-05-14T16:36:48.682Z,3.92
2018-05-14T16:39:16.315Z,4.05
2018-05-14T16:41:43.948Z,3.80
2018-05-14T16:44:11.561Z,3.97
2018-05-14T16:46:39.188Z,4.18
2018-05-14T16:49:06.832Z,3.33
2018-05-14T16:51:34.451Z,4.45
2018-05-14T16:54:02.170Z,4.25
2018-05-14T16:56:29.799Z,4.05
2018-05-14T16:58:57.424Z,4.00
2018-05-14T17:01:25.036Z,4.35
2018-05-14T17:03:52.724Z,3.97
2018-05-14T17:06:20.344Z,4.35
2018-05-14T17:08:47.968Z,3.83
2018-05-14T17:11:15.596Z,5.00
2018-05-14T17:13:43.207Z,4.22
2018-05-14T17:16:11.596Z,4.40
2018-05-14T17:18:39.505Z,4.13
2018-05-14T17:21:07.125Z,4.30
2018-05-14T17:23:34.839Z,4.37
2018-05-14T17:26:02.425Z,4.10
2018-05-14T17:28:30.815Z,4.30
2018-05-14T17:30:59.199Z,5.20
2018-05-14T17:33:27.928Z,4.30
2018-05-14T17:35:55.557Z,5.83
2018-05-14T17:38:23.168Z,4.90
2018-05-14T17:40:50.801Z,5.03
2018-05-14T17:43:18.436Z,5.40
2018-05-14T17:45:46.049Z,4.63
2018-05-14T17:48:13.672Z,4.57
2018-05-14T17:50:41.315Z,4.03
2018-05-14T17:53:08.932Z,5.07
2018-05-14T17:55:36.567Z,5.33
2018-05-14T17:58:04.196Z,4.70
2018-05-14T18:00:31.820Z,4.80
2018-05-14T18:02:59.444Z,4.60
2018-05-14T18:05:27.064Z,4.20
2018-05-14T18:07:55.460Z,4.23
2018-05-14T18:10:23.080Z,5.40
2018-05-14T18:12:50.710Z,4.03
2018-05-14T18:15:18.336Z,4.90
2018-05-14T18:17:46.046Z,4.50
2018-05-14T18:20:19.242Z,4.70
2018-05-14T18:22:46.876Z,4.90
2018-05-14T18:25:20.090Z,6.13
2018-05-14T18:27:53.408Z,5.53
2018-05-14T18:30:27.411Z,5.17
2018-05-14T18:33:01.496Z,5.73
2018-05-14T18:35:34.652Z,5.17
2018-05-14T18:38:02.268Z,5.03
2018-05-14T18:40:29.889Z,4.80
2018-05-14T18:42:57.516Z,5.10
2018-05-14T18:45:25.132Z,4.37
2018-05-14T18:47:52.762Z,4.50
2018-05-14T18:50:20.383Z,5.30
2018-05-14T18:52:48.771Z,4.80
2018-05-14T18:55:16.393Z,5.13
2018-05-14T18:57:44.019Z,4.70
2018-05-14T19:00:11.675Z,4.97
2018-05-14T19:02:39.284Z,5.00
2018-05-14T19:05:06.937Z,5.27
2018-05-14T19:07:34.562Z,4.77
2018-05-14T19:10:02.214Z,5.23
2018-05-14T19:12:29.907Z,5.17
2018-05-14T19:15:03.106Z,5.93
2018-05-14T19:17:36.290Z,5.50
2018-05-14T19:20:03.929Z,4.83
2018-05-14T19:22:37.145Z,5.57
2018-05-14T19:25:04.783Z,5.80
2018-05-14T19:27:32.400Z,5.43
2018-05-14T19:30:00.795Z,5.67
2018-05-14T19:32:28.453Z,5.03
2018-05-14T19:35:01.873Z,5.20
2018-05-14T19:37:29.511Z,5.10
2018-05-14T19:40:02.721Z,5.37
2018-05-14T19:42:30.332Z,4.97
2018-05-14T19:44:58.725Z,5.77
2018-05-14T19:47:27.116Z,4.63
2018-05-14T19:49:55.114Z,5.80
2018-05-14T19:52:22.745Z,5.73
2018-05-14T19:54:50.360Z,5.60
2018-05-14T19:57:17.972Z,4.80
2018-05-14T19:59:45.964Z,4.90
2018-05-14T20:02:13.581Z,5.57
2018-05-14T20:04:41.982Z,6.13
2018-05-14T20:07:09.607Z,5.50
2018-05-14T20:09:37.995Z,5.20
2018-05-14T20:12:05.677Z,6.27
2018-05-14T20:14:33.296Z,5.07
2018-05-14T20:17:01.725Z,5.47
2018-05-14T20:19:29.332Z,5.30
2018-05-14T20:21:56.952Z,5.60
2018-05-14T20:24:24.924Z,5.60
2018-05-14T20:26:52.552Z,5.40
2018-05-14T20:29:20.172Z,5.80
2018-05-14T20:31:48.121Z,5.50
2018-05-14T20:34:15.790Z,5.83
2018-05-14T20:36:43.413Z,5.97
2018-05-14T20:39:11.036Z,5.73
2018-05-14T20:41:39.426Z,5.53
2018-05-14T20:44:07.816Z,6.27
2018-05-14T20:46:35.464Z,6.70
2018-05-14T20:49:03.142Z,5.80
2018-05-14T20:51:30.753Z,6.00
2018-05-14T20:53:58.409Z,6.17
2018-05-14T20:56:26.035Z,5.77
2018-05-14T20:58:53.643Z,6.30
2018-05-14T21:01:21.276Z,6.43
2018-05-14T21:03:48.887Z,6.07
2018-05-14T21:06:17.272Z,6.37
2018-05-14T21:08:44.887Z,6.17
2018-05-14T21:11:12.593Z,6.63
2018-05-14T21:13:40.176Z,7.70
2018-05-14T21:16:07.812Z,7.67
2018-05-14T21:18:35.428Z,8.10
2018-05-14T21:21:03.051Z,8.00
2018-05-14T21:23:30.667Z,8.30
2018-05-14T21:25:59.044Z,7.43
2018-05-14T21:28:27.431Z,7.70
2018-05-14T21:30:55.816Z,7.40
2018-05-14T21:33:24.203Z,6.97
2018-05-14T21:35:51.825Z,7.93
2018-05-14T21:38:19.427Z,7.67
2018-05-14T21:40:47.044Z,7.70
2018-05-14T21:43:14.647Z,7.20
2018-05-14T21:45:42.272Z,7.63
2018-05-14T21:48:09.908Z,7.40
2018-05-14T21:50:37.536Z,7.13
2018-05-14T21:53:05.160Z,6.73
2018-05-14T21:55:33.543Z,7.87
2018-05-14T21:58:01.924Z,7.30
2018-05-14T22:00:30.345Z,6.67
2018-05-14T22:02:57.984Z,7.73
2018-05-14T22:05:25.621Z,6.87
2018-05-14T22:07:54.014Z,7.00
2018-05-14T22:10:21.662Z,6.90
2018-05-14T22:12:50.070Z,7.47
2018-05-14T22:15:17.702Z,7.27
2018-05-14T22:17:46.137Z,7.67
2018-05-14T22:20:13.787Z,7.23
2018-05-14T22:22:41.415Z,7.47
2018-05-14T22:25:09.066Z,7.57
2018-05-14T22:27:36.695Z,7.60
2018-05-14T22:30:04.360Z,7.60
2018-05-14T22:32:31.983Z,8.13
2018-05-14T22:34:59.608Z,8.63
2018-05-14T22:37:28.015Z,7.97
2018-05-14T22:39:55.684Z,8.10
2018-05-14T22:42:23.325Z,7.70
2018-05-14T22:44:50.958Z,8.30
2018-05-14T22:47:19.362Z,8.07
2018-05-14T22:49:46.998Z,8.10
2018-05-14T22:52:15.430Z,7.87
2018-05-14T22:54:43.106Z,8.30
2018-05-14T22:57:10.739Z,7.80
2018-05-14T22:59:38.382Z,8.47
2018-05-14T23:02:06.018Z,8.47
2018-05-14T23:04:34.411Z,8.33
2018-05-14T23:07:02.083Z,8.47
2018-05-14T23:09:29.710Z,8.37
2018-05-14T23:11:58.126Z,8.50
2018-05-14T23:14:25.775Z,7.77
2018-05-14T23:16:53.402Z,8.73
2018-05-14T23:19:21.033Z,9.00
2018-05-14T23:21:48.683Z,8.20
2018-05-14T23:24:16.305Z,8.23
2018-05-14T23:26:44.749Z,9.03
2018-05-14T23:29:12.395Z,8.23
2018-05-14T23:31:40.044Z,8.73
2018-05-14T23:34:07.666Z,8.50
2018-05-14T23:36:36.065Z,7.90
2018-05-14T23:39:03.774Z,8.30
2018-05-14T23:41:31.407Z,8.33
2018-05-14T23:43:59.046Z,7.67
2018-05-14T23:46:26.699Z,8.20
2018-05-14T23:48:54.571Z,7.90
2018-05-14T23:51:22.208Z,8.27
2018-05-14T23:53:50.602Z,8.17
2018-05-14T23:56:18.258Z,8.10
2018-05-14T23:58:45.951Z,8.03
